Time;durP1;ratioP1;P1;durP2;ratioP2;P2;SDS_P1;SDS_P2;PMS_P1;PMS_P2;Temp;Humidity;BMP_temperature;BMP_pressure;BME280_temperature;BME280_humidity;BME280_pressure;Samples;Min_cycle;Max_cycle;Signal;HPM_P1;HPM_P2
2022/07/30 00:00:16;;;;;;;8.50;6.78;;;21.80;99.90;;;;;;5124559;29;20098;-72
2022/07/30 00:02:47;;;;;;;6.97;6.10;;;21.70;99.90;;;;;;5124898;29;20391;-71
2022/07/30 00:05:18;;;;;;;7.50;6.53;;;21.70;99.90;;;;;;5124896;29;20051;-71
2022/07/30 00:07:49;;;;;;;8.25;7.05;;;21.70;99.90;;;;;;5125097;29;20159;-72
2022/07/30 00:10:21;;;;;;;10.63;6.53;;;21.80;99.90;;;;;;5124870;29;20015;-71
2022/07/30 00:12:53;;;;;;;9.23;7.32;;;21.70;99.90;;;;;;5124703;28;20495;-72
2022/07/30 00:15:23;;;;;;;8.10;6.97;;;21.70;99.90;;;;;;5124773;29;20041;-71
2022/07/30 00:17:54;;;;;;;8.25;7.18;;;21.40;99.90;;;;;;5109750;29;20023;-72
2022/07/30 00:20:25;;;;;;;10.15;8.00;;;21.40;99.90;;;;;;5124606;29;20387;-71
2022/07/30 00:22:56;;;;;;;8.38;6.93;;;21.70;99.90;;;;;;5124391;29;20107;-71
2022/07/30 00:25:27;;;;;;;7.57;6.78;;;21.50;99.90;;;;;;5124435;28;20477;-73
2022/07/30 00:27:58;;;;;;;10.93;7.60;;;21.40;99.90;;;;;;5124248;29;20039;-72
2022/07/30 00:30:29;;;;;;;8.32;6.88;;;21.60;99.90;;;;;;5124197;29;20527;-72
2022/07/30 00:33:00;;;;;;;8.07;7.18;;;21.40;99.90;;;;;;5124634;29;20055;-72
2022/07/30 00:35:30;;;;;;;7.75;6.43;;;21.30;99.90;;;;;;5124353;29;20034;-71
2022/07/30 00:38:01;;;;;;;9.38;6.88;;;21.40;99.90;;;;;;5124307;28;20027;-72
2022/07/30 00:40:32;;;;;;;7.32;6.50;;;21.50;99.90;;;;;;5124479;29;20023;-71
2022/07/30 00:43:03;;;;;;;7.90;6.28;;;21.30;99.90;;;;;;5124056;28;20042;-72
2022/07/30 00:45:35;;;;;;;7.55;6.45;;;21.30;99.90;;;;;;5127990;29;20162;-71
2022/07/30 00:48:06;;;;;;;7.28;5.93;;;21.50;99.90;;;;;;5111176;29;20036;-71
2022/07/30 00:50:37;;;;;;;7.40;6.07;;;21.30;99.90;;;;;;5127909;28;20031;-73
2022/07/30 00:53:15;;;;;;;7.65;6.70;;;21.20;99.90;;;;;;5111790;29;20506;-71
2022/07/30 00:55:56;;;;;;;8.85;7.00;;;21.20;99.90;;;;;;5127825;29;20106;-71
2022/07/30 00:58:33;;;;;;;7.65;6.85;;;21.30;99.90;;;;;;5127676;29;20016;-71
2022/07/30 01:01:08;;;;;;;7.78;6.97;;;21.20;99.90;;;;;;5116295;29;20035;-71
2022/07/30 01:03:39;;;;;;;8.00;6.72;;;21.20;99.90;;;;;;5127633;28;20047;-74
2022/07/30 01:06:10;;;;;;;8.02;6.68;;;21.20;99.90;;;;;;5127489;29;20024;-72
2022/07/30 01:08:42;;;;;;;7.25;6.55;;;21.20;99.90;;;;;;5127561;29;20032;-72
2022/07/30 01:11:13;;;;;;;9.68;6.68;;;21.10;99.90;;;;;;5127424;29;20062;-71
2022/07/30 01:13:44;;;;;;;11.15;7.85;;;21.20;99.90;;;;;;5127425;29;20038;-71
2022/07/30 01:16:15;;;;;;;8.82;7.07;;;21.00;99.90;;;;;;5127373;28;20025;-71
2022/07/30 01:21:40;;;;;;;7.07;6.38;;;21.10;99.90;;;;;;5127426;29;20058;-71
2022/07/30 01:24:34;;;;;;;7.15;6.40;;;21.00;99.90;;;;;;5127000;29;20043;-73
2022/07/30 01:27:06;;;;;;;7.68;6.40;;;21.00;99.90;;;;;;5127316;29;20475;-74
2022/07/30 01:29:39;;;;;;;7.82;6.82;;;21.10;99.90;;;;;;5126901;29;20055;-71
2022/07/30 01:32:12;;;;;;;7.82;7.03;;;21.10;99.90;;;;;;5124190;29;20067;-72
2022/07/30 01:34:45;;;;;;;9.77;6.93;;;21.00;99.90;;;;;;5127170;29;20472;-73
2022/07/30 01:37:17;;;;;;;9.07;7.50;;;21.00;99.90;;;;;;5127019;29;20031;-73
2022/07/30 01:39:49;;;;;;;6.88;6.18;;;21.00;99.90;;;;;;5126872;29;20089;-73
2022/07/30 01:42:23;;;;;;;8.23;6.75;;;20.90;99.90;;;;;;5126796;28;20034;-74
2022/07/30 01:44:55;;;;;;;6.82;6.13;;;20.80;99.90;;;;;;5126863;29;20134;-71
2022/07/30 01:47:28;;;;;;;7.00;6.30;;;20.90;99.90;;;;;;5126728;29;20035;-70
2022/07/30 01:50:00;;;;;;;8.63;6.55;;;20.90;99.90;;;;;;5122346;29;20537;-71
2022/07/30 01:52:34;;;;;;;8.30;7.18;;;20.90;99.90;;;;;;5126545;29;20054;-73
2022/07/30 01:55:07;;;;;;;7.80;6.18;;;21.10;99.90;;;;;;5126028;28;20027;-73
2022/07/30 01:57:39;;;;;;;7.07;6.38;;;21.00;99.90;;;;;;5126444;28;20041;-70
2022/07/30 02:00:10;;;;;;;8.60;7.28;;;20.90;99.90;;;;;;5126501;29;20030;-71
2022/07/30 02:02:41;;;;;;;8.05;7.05;;;20.90;99.90;;;;;;5126615;28;20117;-73
2022/07/30 02:05:12;;;;;;;9.73;7.55;;;20.90;99.90;;;;;;5116162;29;20031;-73
2022/07/30 02:08:05;;;;;;;8.98;7.60;;;20.80;99.90;;;;;;5126508;29;20049;-73
2022/07/30 02:10:51;;;;;;;8.70;7.80;;;20.60;99.90;;;;;;5126447;29;20387;-71
2022/07/30 02:13:26;;;;;;;10.70;8.45;;;20.80;99.90;;;;;;5126365;28;20027;-70
2022/07/30 02:16:10;;;;;;;10.20;7.13;;;20.80;99.90;;;;;;5126267;29;20442;-70
2022/07/30 02:19:27;;;;;;;8.65;7.75;;;20.70;99.90;;;;;;5126352;29;20341;-71
2022/07/30 02:22:06;;;;;;;9.05;7.80;;;20.80;99.90;;;;;;5122181;29;20574;-71
2022/07/30 02:24:39;;;;;;;8.13;7.32;;;20.80;99.90;;;;;;5126151;28;20575;-71
2022/07/30 02:27:23;;;;;;;8.18;7.35;;;20.70;99.90;;;;;;5126134;29;20384;-71
2022/07/30 02:29:58;;;;;;;8.57;7.70;;;20.70;99.90;;;;;;5120719;29;20082;-71
2022/07/30 02:32:35;;;;;;;7.50;6.80;;;20.50;99.90;;;;;;5126368;29;20030;-71
2022/07/30 02:35:20;;;;;;;8.43;7.28;;;20.60;99.90;;;;;;5116347;29;20027;-74
2022/07/30 02:37:53;;;;;;;8.35;7.22;;;20.60;99.90;;;;;;5120783;29;20377;-71
2022/07/30 02:40:25;;;;;;;8.73;7.15;;;20.50;99.90;;;;;;5118209;29;20077;-71
2022/07/30 02:42:57;;;;;;;8.93;7.97;;;20.50;99.90;;;;;;5109138;29;20411;-71
2022/07/30 02:45:29;;;;;;;11.70;8.23;;;20.50;99.90;;;;;;5125595;29;20066;-74
2022/07/30 02:48:05;;;;;;;9.43;7.82;;;20.40;99.90;;;;;;5125567;29;20027;-70
2022/07/30 02:50:38;;;;;;;10.15;8.05;;;20.50;99.90;;;;;;5126008;28;20471;-71
2022/07/30 02:53:11;;;;;;;9.75;7.55;;;20.30;99.90;;;;;;5125568;29;20079;-71
2022/07/30 02:55:43;;;;;;;8.55;7.65;;;20.40;99.90;;;;;;5113371;29;20114;-72
2022/07/30 02:58:21;;;;;;;10.40;7.70;;;20.30;99.90;;;;;;5125357;29;20019;-71
2022/07/30 03:00:53;;;;;;;8.85;7.57;;;20.40;99.90;;;;;;5125514;28;20388;-71
2022/07/30 03:03:28;;;;;;;8.02;7.22;;;20.40;99.90;;;;;;5125293;29;20035;-73
2022/07/30 03:05:59;;;;;;;8.55;7.65;;;20.40;99.90;;;;;;5125458;29;20047;-71
2022/07/30 03:08:31;;;;;;;8.18;7.32;;;20.20;99.90;;;;;;5125242;28;20019;-71
2022/07/30 03:11:03;;;;;;;9.70;8.70;;;20.40;99.90;;;;;;5125272;29;20035;-72
2022/07/30 03:13:34;;;;;;;9.38;8.25;;;20.40;99.90;;;;;;5125137;28;20031;-71
2022/07/30 03:16:09;;;;;;;9.60;8.00;;;20.20;99.90;;;;;;5125207;28;20023;-71
2022/07/30 03:18:42;;;;;;;9.68;8.68;;;20.40;99.90;;;;;;5125354;28;20027;-72
2022/07/30 03:21:15;;;;;;;10.85;8.15;;;20.40;99.90;;;;;;5114944;29;20023;-73
2022/07/30 03:23:48;;;;;;;9.93;8.05;;;20.50;99.90;;;;;;5125050;28;20040;-71
2022/07/30 03:26:21;;;;;;;8.73;7.85;;;20.50;99.90;;;;;;5125029;28;20053;-73
2022/07/30 03:28:52;;;;;;;10.82;8.57;;;20.30;99.90;;;;;;5107494;29;20052;-72
2022/07/30 03:31:24;;;;;;;9.32;8.35;;;20.50;99.90;;;;;;5124898;29;20031;-71
2022/07/30 03:33:55;;;;;;;8.90;7.53;;;20.50;99.90;;;;;;5124947;29;20046;-71
2022/07/30 03:36:27;;;;;;;8.55;7.60;;;20.50;99.90;;;;;;5125049;28;20027;-71
2022/07/30 03:38:58;;;;;;;7.50;6.80;;;20.60;99.90;;;;;;5112470;29;20023;-72
2022/07/30 03:41:30;;;;;;;7.72;6.80;;;20.60;99.90;;;;;;5124959;28;20123;-73
2022/07/30 03:44:02;;;;;;;8.57;7.68;;;20.70;99.90;;;;;;5124576;29;20032;-73
2022/07/30 03:46:36;;;;;;;9.27;8.30;;;20.80;99.90;;;;;;5124814;29;20023;-71
2022/07/30 03:49:09;;;;;;;8.90;8.02;;;20.80;99.90;;;;;;5124813;29;20102;-73
2022/07/30 03:51:40;;;;;;;13.05;7.85;;;20.80;99.90;;;;;;5124884;29;20023;-72
2022/07/30 03:54:12;;;;;;;8.93;7.28;;;20.80;99.90;;;;;;5124571;29;20078;-72
2022/07/30 03:56:43;;;;;;;8.02;7.22;;;21.00;99.90;;;;;;5124779;29;20106;-71
2022/07/30 03:59:14;;;;;;;9.05;7.38;;;21.10;99.90;;;;;;5124487;29;20098;-72
2022/07/30 04:01:45;;;;;;;8.45;7.35;;;21.20;99.90;;;;;;5124687;29;20031;-71
2022/07/30 04:04:16;;;;;;;9.18;7.97;;;21.20;99.90;;;;;;5124601;29;20070;-71
2022/07/30 04:06:47;;;;;;;9.32;8.27;;;21.40;99.90;;;;;;5124828;29;20019;-72
2022/07/30 04:09:18;;;;;;;9.10;8.18;;;21.60;99.90;;;;;;5124533;28;20542;-71
2022/07/30 04:11:49;;;;;;;9.18;8.05;;;21.70;99.90;;;;;;5124509;29;20050;-73
2022/07/30 04:14:19;;;;;;;9.20;7.47;;;21.70;99.90;;;;;;5124383;29;20059;-71
2022/07/30 04:17:02;;;;;;;8.82;7.93;;;21.80;99.90;;;;;;5108953;29;20126;-73
2022/07/30 04:19:46;;;;;;;8.65;7.78;;;21.90;99.90;;;;;;5126563;28;20038;-71
2022/07/30 04:22:33;;;;;;;9.15;8.25;;;22.00;99.90;;;;;;5127932;29;20051;-73
2022/07/30 04:25:05;;;;;;;9.60;7.95;;;22.20;99.90;;;;;;5118205;29;20046;-73
2022/07/30 04:27:38;;;;;;;10.88;8.73;;;22.30;99.90;;;;;;5128332;29;21388;-71
2022/07/30 04:30:09;;;;;;;9.10;8.20;;;22.60;99.90;;;;;;5127989;28;20043;-72
2022/07/30 04:32:41;;;;;;;9.52;8.52;;;22.70;99.90;;;;;;5128233;28;20039;-74
2022/07/30 04:35:12;;;;;;;9.85;8.85;;;22.90;99.90;;;;;;5128145;29;20034;-71
2022/07/30 05:11:24;;;;;;;6.53;4.47;;;24.20;99.90;;;;;;5300276;27;20432;-70
2022/07/30 05:13:55;;;;;;;5.53;4.80;;;24.60;99.90;;;;;;5305031;27;20088;-72
2022/07/30 05:16:26;;;;;;;8.68;4.38;;;24.80;99.90;;;;;;5307369;27;20034;-71
2022/07/30 05:18:57;;;;;;;5.47;4.32;;;24.80;99.90;;;;;;5293979;28;20366;-70
2022/07/30 05:21:28;;;;;;;5.45;4.07;;;24.90;99.90;;;;;;5290444;28;20114;-72
2022/07/30 05:23:59;;;;;;;6.47;4.60;;;24.90;99.90;;;;;;5302193;27;20040;-70
2022/07/30 05:55:07;;;;;;;7.40;3.10;;;25.20;99.90;;;;;;5297448;27;20397;-72
2022/07/30 05:57:40;;;;;;;6.18;3.30;;;25.50;99.90;;;;;;5290938;28;20081;-69
2022/07/30 06:00:12;;;;;;;6.72;3.15;;;25.80;99.90;;;;;;5306136;28;20015;-72
2022/07/30 06:02:43;;;;;;;8.48;3.13;;;25.80;99.90;;;;;;5302739;28;20023;-74
2022/07/30 06:05:13;;;;;;;11.65;3.40;;;25.90;99.90;;;;;;5306691;27;20539;-72
2022/07/30 06:07:44;;;;;;;24.70;4.05;;;25.80;99.90;;;;;;5290187;28;20107;-73
2022/07/30 06:10:15;;;;;;;6.35;3.17;;;25.90;99.90;;;;;;5290854;28;20023;-74
2022/07/30 06:12:46;;;;;;;5.15;2.88;;;25.90;99.90;;;;;;5300755;28;20052;-69
2022/07/30 06:15:16;;;;;;;4.88;2.97;;;25.90;99.90;;;;;;5301079;28;20374;-73
2022/07/30 06:17:47;;;;;;;4.57;3.30;;;26.10;99.90;;;;;;5306784;27;20084;-71
2022/07/30 06:20:20;;;;;;;2.80;2.50;;;26.10;99.90;;;;;;5302355;28;20016;-74
2022/07/30 06:22:51;;;;;;;5.63;3.25;;;26.20;99.90;;;;;;5294305;28;20054;-72
2022/07/30 06:25:21;;;;;;;3.08;2.78;;;26.30;99.90;;;;;;5298708;27;20027;-73
2022/07/30 06:27:52;;;;;;;6.07;3.20;;;26.30;99.90;;;;;;5290454;27;20112;-70
2022/07/30 06:30:23;;;;;;;4.88;2.85;;;26.30;99.90;;;;;;5297194;28;20073;-72
2022/07/30 06:32:54;;;;;;;4.07;3.28;;;26.30;99.90;;;;;;5306069;27;20072;-69
2022/07/30 06:35:25;;;;;;;4.07;3.13;;;26.00;99.90;;;;;;5304923;28;20485;-69
2022/07/30 06:37:55;;;;;;;3.75;3.33;;;26.00;99.90;;;;;;5288012;28;20098;-71
2022/07/30 06:40:26;;;;;;;13.15;3.60;;;26.20;99.90;;;;;;5306247;28;20016;-74
2022/07/30 06:42:57;;;;;;;5.32;4.05;;;26.40;99.90;;;;;;5305774;28;20032;-69
2022/07/30 06:45:28;;;;;;;4.55;3.00;;;26.80;99.90;;;;;;5305994;27;20026;-74
2022/07/30 06:47:59;;;;;;;5.68;3.60;;;26.30;99.90;;;;;;5307025;27;20446;-74
2022/07/30 06:50:30;;;;;;;3.97;3.42;;;26.40;99.90;;;;;;5306598;27;20062;-73
2022/07/30 06:53:01;;;;;;;4.68;3.60;;;26.40;99.90;;;;;;5306413;27;20794;-72
2022/07/30 06:55:31;;;;;;;5.60;3.88;;;26.40;99.90;;;;;;5289429;28;20474;-70
2022/07/30 06:58:02;;;;;;;4.60;4.10;;;26.50;99.90;;;;;;5292016;28;20027;-71
2022/07/30 07:00:33;;;;;;;5.68;4.07;;;26.60;99.90;;;;;;5292149;28;20023;-69
2022/07/30 07:03:04;;;;;;;3.58;3.25;;;26.70;99.90;;;;;;5292084;28;20035;-72
2022/07/30 07:05:34;;;;;;;4.55;3.45;;;27.20;99.90;;;;;;5292072;28;20028;-72
2022/07/30 07:08:05;;;;;;;5.35;3.67;;;27.10;99.90;;;;;;5289863;28;20134;-70
2022/07/30 07:10:36;;;;;;;4.97;3.50;;;27.30;99.90;;;;;;5282108;28;20103;-73
2022/07/30 07:13:07;;;;;;;5.35;3.67;;;27.20;99.90;;;;;;5284310;28;20016;-70
2022/07/30 07:15:38;;;;;;;6.07;3.28;;;27.50;99.90;;;;;;5285534;28;20024;-73
2022/07/30 07:18:11;;;;;;;5.38;3.78;;;27.90;99.90;;;;;;5281387;28;20028;-74
2022/07/30 07:20:42;;;;;;;3.35;2.80;;;27.40;99.90;;;;;;5282801;28;20024;-71
2022/07/30 07:23:13;;;;;;;6.65;3.40;;;27.50;99.90;;;;;;5288351;28;20399;-70
2022/07/30 07:25:44;;;;;;;5.03;3.58;;;27.20;99.90;;;;;;5291648;28;20042;-74
2022/07/30 07:28:14;;;;;;;4.03;3.63;;;27.00;99.90;;;;;;5291651;28;20027;-74
2022/07/30 07:30:45;;;;;;;5.43;3.72;;;27.20;99.90;;;;;;5290224;28;20028;-73
2022/07/30 07:33:16;;;;;;;5.47;3.90;;;27.70;99.90;;;;;;5291629;28;20084;-70
2022/07/30 07:35:47;;;;;;;4.88;3.75;;;28.10;99.90;;;;;;5291458;28;20107;-71
2022/07/30 07:38:18;;;;;;;4.93;3.55;;;28.10;99.90;;;;;;5291452;28;20385;-71
2022/07/30 07:40:49;;;;;;;4.05;3.63;;;28.00;99.90;;;;;;5282767;28;20348;-73
2022/07/30 07:43:19;;;;;;;5.18;3.92;;;28.10;99.90;;;;;;5291319;28;20041;-74
2022/07/30 07:45:50;;;;;;;3.72;3.15;;;28.10;99.90;;;;;;5290978;28;20020;-74
2022/07/30 07:48:21;;;;;;;3.80;3.42;;;28.20;99.90;;;;;;5291382;28;20478;-74
2022/07/30 07:50:52;;;;;;;9.05;4.38;;;27.90;99.90;;;;;;5279507;28;20020;-71
2022/07/30 07:53:23;;;;;;;4.35;3.90;;;27.50;99.90;;;;;;5290711;28;20108;-74
2022/07/30 07:55:53;;;;;;;4.72;3.65;;;27.50;99.90;;;;;;5290764;28;20035;-69
2022/07/30 07:58:25;;;;;;;8.18;3.67;;;28.10;99.90;;;;;;5291126;28;20050;-74
2022/07/30 08:00:56;;;;;;;4.55;3.55;;;28.50;99.90;;;;;;5290789;28;20020;-73
2022/07/30 08:03:27;;;;;;;5.68;4.10;;;28.50;99.90;;;;;;5282125;28;20050;-73
2022/07/30 08:06:00;;;;;;;5.40;3.97;;;28.40;99.90;;;;;;5284253;28;20032;-72
2022/07/30 08:08:31;;;;;;;6.18;4.65;;;28.60;99.90;;;;;;5290910;28;20032;-73
2022/07/30 08:11:03;;;;;;;6.03;4.43;;;28.60;99.90;;;;;;5290798;28;20030;-69
2022/07/30 08:13:33;;;;;;;6.97;4.50;;;28.80;99.90;;;;;;5285813;28;20103;-74
2022/07/30 08:16:06;;;;;;;6.05;4.93;;;28.70;99.90;;;;;;5290585;28;20624;-70
2022/07/30 08:18:37;;;;;;;5.97;4.60;;;29.00;99.90;;;;;;5290819;28;20032;-74
2022/07/30 08:21:08;;;;;;;6.85;4.30;;;28.40;99.90;;;;;;5290612;28;20027;-71
2022/07/30 08:23:39;;;;;;;5.88;4.38;;;28.70;99.90;;;;;;5276298;28;20483;-71
2022/07/30 08:26:10;;;;;;;6.93;4.72;;;29.00;99.90;;;;;;5289762;28;20019;-69
2022/07/30 08:28:42;;;;;;;5.05;4.53;;;29.30;99.90;;;;;;5290634;28;20038;-73
2022/07/30 08:31:12;;;;;;;5.40;4.80;;;28.90;99.90;;;;;;5283813;28;20030;-74
2022/07/30 08:33:43;;;;;;;5.60;4.65;;;29.20;99.90;;;;;;5290204;28;20363;-70
2022/07/30 08:36:14;;;;;;;5.22;4.25;;;28.60;99.90;;;;;;5290435;28;20520;-72
2022/07/30 08:38:45;;;;;;;6.78;5.03;;;29.00;99.90;;;;;;5290340;28;20024;-71
2022/07/30 08:41:20;;;;;;;6.63;4.75;;;29.20;99.90;;;;;;5286940;28;20049;-71
2022/07/30 08:43:52;;;;;;;7.32;5.38;;;29.00;99.90;;;;;;5285252;28;20069;-71
2022/07/30 08:46:26;;;;;;;5.80;4.55;;;29.20;99.90;;;;;;5289789;28;20098;-71
2022/07/30 08:48:57;;;;;;;5.72;3.95;;;29.50;99.90;;;;;;5290418;28;20023;-74
2022/07/30 08:51:28;;;;;;;7.57;4.03;;;29.60;99.90;;;;;;5290130;28;20400;-74
2022/07/30 08:54:00;;;;;;;4.75;4.07;;;29.20;99.90;;;;;;5289649;28;20048;-70
2022/07/30 08:56:33;;;;;;;5.25;3.90;;;29.40;99.90;;;;;;5289958;28;20023;-73
2022/07/30 08:59:04;;;;;;;6.45;4.38;;;29.30;99.90;;;;;;5289830;28;20455;-71
2022/07/30 09:01:35;;;;;;;9.68;4.05;;;29.20;99.90;;;;;;5290087;28;20102;-71
2022/07/30 09:04:06;;;;;;;5.15;4.28;;;29.40;99.90;;;;;;5289771;28;20118;-69
2022/07/30 09:06:37;;;;;;;4.85;3.95;;;29.40;99.90;;;;;;5289669;28;20349;-73
2022/07/30 09:09:08;;;;;;;5.50;4.18;;;29.30;99.90;;;;;;5289774;28;20020;-74
2022/07/30 09:11:38;;;;;;;5.88;4.30;;;29.70;99.90;;;;;;5289844;28;20030;-74
2022/07/30 09:14:12;;;;;;;8.07;4.20;;;30.00;99.90;;;;;;5289578;28;20016;-69
2022/07/30 09:16:44;;;;;;;4.95;4.15;;;29.80;99.90;;;;;;5289659;28;20027;-73
2022/07/30 09:19:17;;;;;;;5.80;3.97;;;29.40;99.90;;;;;;5289562;28;20030;-74
2022/07/30 09:21:56;;;;;;;10.55;4.78;;;29.30;99.90;;;;;;5289567;28;20027;-69
2022/07/30 09:24:27;;;;;;;5.78;3.40;;;29.70;99.90;;;;;;5277540;28;20518;-71
2022/07/30 09:27:00;;;;;;;3.42;3.05;;;29.40;99.90;;;;;;5289534;28;20019;-74
2022/07/30 09:29:32;;;;;;;10.10;3.90;;;29.30;99.90;;;;;;5280290;28;20020;-69
2022/07/30 09:32:05;;;;;;;3.90;3.55;;;29.20;99.90;;;;;;5287671;28;20030;-69
2022/07/30 09:34:38;;;;;;;4.15;3.25;;;29.30;99.90;;;;;;5288609;28;20579;-70
2022/07/30 09:37:09;;;;;;;4.43;3.00;;;28.90;99.90;;;;;;5280258;28;20034;-70
2022/07/30 09:39:41;;;;;;;4.05;3.35;;;29.30;99.90;;;;;;5289505;28;20027;-73
2022/07/30 09:42:25;;;;;;;4.30;3.22;;;30.20;99.90;;;;;;5281544;28;20012;-68
2022/07/30 09:45:11;;;;;;;5.55;3.40;;;29.90;99.90;;;;;;5289282;28;20035;-74
2022/07/30 09:47:47;;;;;;;4.20;3.33;;;30.20;99.90;;;;;;5284784;28;20084;-73
2022/07/30 09:50:19;;;;;;;3.70;3.17;;;30.10;99.90;;;;;;5272503;28;20061;-68
2022/07/30 09:52:52;;;;;;;3.80;3.13;;;30.10;99.90;;;;;;5288538;28;20126;-74
2022/07/30 09:55:35;;;;;;;4.78;2.85;;;30.00;99.90;;;;;;5283688;28;20494;-69
2022/07/30 09:58:06;;;;;;;4.65;3.17;;;30.00;99.90;;;;;;5284817;28;20717;-71
2022/07/30 10:00:38;;;;;;;3.08;2.78;;;29.80;99.90;;;;;;5287065;28;20371;-70
2022/07/30 10:03:21;;;;;;;4.18;2.92;;;29.20;99.90;;;;;;5288644;28;20040;-69
2022/07/30 10:05:57;;;;;;;4.78;3.88;;;29.70;99.90;;;;;;5288307;28;20027;-70
2022/07/30 10:08:43;;;;;;;4.80;3.40;;;30.40;99.90;;;;;;5287246;28;20031;-69
2022/07/30 10:11:17;;;;;;;4.97;3.70;;;29.90;99.90;;;;;;5288223;28;20028;-73
2022/07/30 10:13:52;;;;;;;6.72;3.83;;;30.40;99.90;;;;;;5288854;28;20543;-72
2022/07/30 10:16:27;;;;;;;3.42;2.90;;;30.40;99.90;;;;;;5289190;28;20486;-70
2022/07/30 10:18:59;;;;;;;4.25;3.20;;;30.70;99.90;;;;;;5288550;28;20015;-72
2022/07/30 10:21:30;;;;;;;3.60;2.60;;;30.40;99.90;;;;;;5289065;28;20471;-70
2022/07/30 10:24:01;;;;;;;5.65;2.80;;;30.50;99.90;;;;;;5288638;28;20040;-73
2022/07/30 10:26:36;;;;;;;3.75;2.63;;;30.30;99.90;;;;;;5289225;28;20028;-70
2022/07/30 10:29:07;;;;;;;3.83;3.03;;;30.70;99.90;;;;;;5281231;28;20043;-71
2022/07/30 10:31:38;;;;;;;3.42;2.70;;;29.50;99.90;;;;;;5286779;28;20032;-71
2022/07/30 10:34:10;;;;;;;5.55;3.40;;;30.10;99.90;;;;;;5288884;28;20374;-71
2022/07/30 10:36:50;;;;;;;4.20;2.65;;;30.80;99.90;;;;;;5289911;28;20027;-71
2022/07/30 10:39:27;;;;;;;4.82;2.50;;;30.90;99.90;;;;;;5292012;28;20028;-74
2022/07/30 10:42:16;;;;;;;4.32;2.53;;;30.60;99.90;;;;;;5288189;28;20019;-71
2022/07/30 10:45:16;;;;;;;4.68;2.60;;;30.90;99.90;;;;;;5288534;28;20031;-71
2022/07/30 10:47:48;;;;;;;4.40;2.38;;;30.40;99.90;;;;;;5288138;28;20024;-73
2022/07/30 10:50:25;;;;;;;2.75;2.50;;;30.00;99.90;;;;;;5291110;28;20016;-73
2022/07/30 10:52:59;;;;;;;4.00;2.70;;;29.70;99.90;;;;;;5289282;28;20441;-74
2022/07/30 10:55:36;;;;;;;3.58;2.40;;;29.70;99.90;;;;;;5292734;28;20027;-69
2022/07/30 10:58:09;;;;;;;3.70;2.65;;;30.10;99.90;;;;;;5287846;28;20085;-70
2022/07/30 11:00:53;;;;;;;7.30;2.35;;;30.00;99.90;;;;;;5292121;28;20113;-70
2022/07/30 11:03:25;;;;;;;2.88;2.28;;;30.30;99.90;;;;;;5292211;28;20077;-71
2022/07/30 11:06:14;;;;;;;2.85;2.15;;;30.30;99.90;;;;;;5291855;28;20028;-74
2022/07/30 11:08:47;;;;;;;2.80;2.10;;;30.80;99.90;;;;;;5292144;28;20027;-73
2022/07/30 11:11:20;;;;;;;2.78;2.40;;;31.40;99.90;;;;;;5292049;28;20024;-72
2022/07/30 11:13:57;;;;;;;5.65;2.17;;;31.10;99.90;;;;;;5287560;28;20040;-73
2022/07/30 11:16:33;;;;;;;3.42;2.28;;;30.30;99.90;;;;;;5291593;28;20059;-71
2022/07/30 11:19:23;;;;;;;5.07;2.30;;;30.60;99.90;;;;;;5291932;28;20030;-70
2022/07/30 11:22:21;;;;;;;3.63;2.40;;;30.90;99.90;;;;;;5286833;28;20024;-73
2022/07/30 11:24:52;;;;;;;2.93;2.20;;;30.60;99.90;;;;;;5289171;28;20046;-72
2022/07/30 11:27:47;;;;;;;3.88;2.33;;;30.50;99.90;;;;;;5277820;28;20269;-70
2022/07/30 11:30:21;;;;;;;2.90;2.30;;;31.20;99.90;;;;;;5285058;28;20015;-73
2022/07/30 11:32:54;;;;;;;2.42;2.08;;;30.80;99.90;;;;;;5286701;28;20035;-70
2022/07/30 11:35:28;;;;;;;3.10;2.42;;;30.90;99.90;;;;;;5268156;28;20544;-70
2022/07/30 11:38:18;;;;;;;2.47;1.80;;;31.20;99.90;;;;;;5292552;28;20059;-70
2022/07/30 11:40:49;;;;;;;4.38;2.42;;;30.90;99.90;;;;;;5292100;28;20032;-69
2022/07/30 11:43:31;;;;;;;5.97;2.35;;;31.20;99.90;;;;;;5285405;28;20032;-72
2022/07/30 11:46:13;;;;;;;3.95;1.92;;;30.80;99.90;;;;;;5283631;28;20395;-69
2022/07/30 11:49:00;;;;;;;5.03;2.08;;;31.20;99.90;;;;;;5287324;28;20377;-70
2022/07/30 11:51:44;;;;;;;3.25;2.58;;;31.30;99.90;;;;;;5288210;28;20065;-71
2022/07/30 11:54:15;;;;;;;2.92;2.13;;;30.90;99.90;;;;;;5269372;28;20047;-70
2022/07/30 11:56:56;;;;;;;6.10;2.63;;;31.30;99.90;;;;;;5290877;28;20027;-73
2022/07/30 11:59:26;;;;;;;3.65;2.35;;;31.40;99.90;;;;;;5291209;28;20023;-73
2022/07/30 12:02:00;;;;;;;3.50;2.05;;;31.20;99.90;;;;;;5286948;28;20020;-69
2022/07/30 12:04:31;;;;;;;3.20;1.95;;;30.80;99.90;;;;;;5288558;28;20039;-73
2022/07/30 12:07:01;;;;;;;2.83;2.08;;;31.40;99.90;;;;;;5291390;28;20019;-69
2022/07/30 12:09:32;;;;;;;3.90;2.28;;;30.90;99.90;;;;;;5290976;28;20070;-70
2022/07/30 12:12:22;;;;;;;2.10;1.80;;;31.30;99.90;;;;;;5279497;28;20061;-73
2022/07/30 12:14:53;;;;;;;4.05;2.10;;;31.10;99.90;;;;;;5288467;28;20027;-70
2022/07/30 12:17:42;;;;;;;3.08;2.08;;;31.60;99.90;;;;;;5290736;28;20035;-70
2022/07/30 12:20:17;;;;;;;2.47;1.85;;;31.00;99.90;;;;;;5290722;28;20026;-71
2022/07/30 12:22:48;;;;;;;3.92;1.95;;;31.40;99.90;;;;;;5290405;28;20394;-72
2022/07/30 12:25:20;;;;;;;15.75;4.13;;;32.00;99.90;;;;;;5290663;28;20038;-72
2022/07/30 12:27:52;;;;;;;3.63;2.33;;;31.30;99.90;;;;;;5290380;27;20030;-71
2022/07/30 12:30:23;;;;;;;2.67;2.20;;;31.50;99.90;;;;;;5290119;28;20034;-72
2022/07/30 12:32:54;;;;;;;2.38;1.98;;;31.00;99.90;;;;;;5290441;28;20026;-71
2022/07/30 12:35:44;;;;;;;3.80;2.10;;;31.00;99.90;;;;;;5290404;28;20024;-72
2022/07/30 12:38:16;;;;;;;2.95;2.08;;;31.40;99.90;;;;;;5290209;28;20027;-74
2022/07/30 12:41:03;;;;;;;2.70;2.10;;;31.90;99.90;;;;;;5290450;28;20031;-74
2022/07/30 12:43:47;;;;;;;10.13;2.70;;;31.80;99.90;;;;;;5284420;28;20056;-71
2022/07/30 12:46:20;;;;;;;2.15;1.65;;;31.00;99.90;;;;;;5273880;28;20027;-71
2022/07/30 12:49:03;;;;;;;2.88;1.65;;;31.00;99.90;;;;;;5290232;28;20078;-71
2022/07/30 12:51:48;;;;;;;3.20;2.35;;;31.30;99.90;;;;;;5277065;28;20015;-70
2022/07/30 12:54:19;;;;;;;2.80;2.20;;;31.30;99.90;;;;;;5288588;28;20494;-70
2022/07/30 12:56:57;;;;;;;2.67;2.13;;;30.60;99.90;;;;;;5281638;28;20106;-74
2022/07/30 12:59:32;;;;;;;4.60;2.35;;;31.40;99.90;;;;;;5283256;28;20027;-70
2022/07/30 13:02:03;;;;;;;4.55;2.78;;;31.40;99.90;;;;;;5289933;28;20047;-73
2022/07/30 13:04:34;;;;;;;3.47;2.17;;;30.50;99.90;;;;;;5272014;28;20123;-74
2022/07/30 13:07:09;;;;;;;3.00;2.00;;;30.90;99.90;;;;;;5288098;28;20072;-73
2022/07/30 13:09:40;;;;;;;3.47;2.30;;;31.40;99.90;;;;;;5283532;28;20028;-73
2022/07/30 13:12:13;;;;;;;2.92;2.35;;;31.20;99.90;;;;;;5288357;28;20072;-70
2022/07/30 13:14:45;;;;;;;57.08;10.77;;;31.20;99.90;;;;;;5288352;28;20022;-70
2022/07/30 13:17:17;;;;;;;42.70;8.70;;;31.30;99.90;;;;;;5286969;28;20031;-70
2022/07/30 13:19:48;;;;;;;10.70;2.97;;;31.00;99.90;;;;;;5285967;28;20020;-71
2022/07/30 13:22:19;;;;;;;3.05;2.22;;;30.50;99.90;;;;;;5274314;28;20704;-71
2022/07/30 13:24:49;;;;;;;6.28;2.28;;;31.10;99.90;;;;;;5289206;28;20036;-71
2022/07/30 13:27:20;;;;;;;3.83;2.67;;;30.20;99.90;;;;;;5289651;28;20073;-69
2022/07/30 13:29:51;;;;;;;4.45;2.53;;;31.20;99.90;;;;;;5289479;28;20100;-70
2022/07/30 13:32:22;;;;;;;6.57;2.83;;;30.40;99.90;;;;;;5270971;28;20062;-69
2022/07/30 13:34:53;;;;;;;7.75;2.78;;;30.40;99.90;;;;;;5289500;28;20031;-73
2022/07/30 13:37:23;;;;;;;4.60;2.42;;;30.90;99.90;;;;;;5284623;28;20524;-70
2022/07/30 13:39:54;;;;;;;4.72;2.20;;;30.80;99.90;;;;;;5274078;28;20102;-69
2022/07/30 13:42:25;;;;;;;3.33;2.10;;;30.60;99.90;;;;;;5270829;28;20023;-73
2022/07/30 13:44:56;;;;;;;3.55;2.47;;;30.80;99.90;;;;;;5284131;28;20039;-71
2022/07/30 13:47:27;;;;;;;3.92;2.40;;;30.60;99.90;;;;;;5282553;28;20024;-74
2022/07/30 13:49:58;;;;;;;3.22;2.40;;;30.90;99.90;;;;;;5289202;28;20479;-72
2022/07/30 13:52:29;;;;;;;2.35;2.10;;;31.10;99.90;;;;;;5289113;28;20063;-70
2022/07/30 13:55:01;;;;;;;3.75;2.42;;;30.80;99.90;;;;;;5288629;28;20044;-74
2022/07/30 13:57:32;;;;;;;5.38;2.40;;;30.70;99.90;;;;;;5289082;28;20039;-73
2022/07/30 14:00:07;;;;;;;3.88;2.55;;;31.30;99.90;;;;;;5288687;28;20023;-75
2022/07/30 14:02:38;;;;;;;2.90;2.20;;;30.90;99.90;;;;;;5289385;28;20028;-69
2022/07/30 14:05:09;;;;;;;4.05;2.70;;;31.20;99.90;;;;;;5290607;28;20023;-72
2022/07/30 14:07:46;;;;;;;2.28;1.98;;;31.20;99.90;;;;;;5287068;28;20453;-74
2022/07/30 14:10:20;;;;;;;3.28;2.30;;;30.90;99.90;;;;;;5285226;28;20147;-68
2022/07/30 14:12:53;;;;;;;2.42;2.20;;;30.30;99.90;;;;;;5272335;28;20034;-69
2022/07/30 14:15:27;;;;;;;2.72;2.10;;;30.40;99.90;;;;;;5286080;28;20024;-68
2022/07/30 14:17:59;;;;;;;4.10;2.17;;;30.40;99.90;;;;;;5293590;28;20049;-72
2022/07/30 14:20:30;;;;;;;3.58;2.40;;;31.50;99.90;;;;;;5293404;27;20471;-73
2022/07/30 14:23:01;;;;;;;2.63;2.10;;;30.90;99.90;;;;;;5293329;28;20039;-73